FLKK

Kenneth Kaunda International Airport

Lusaka, Zambia
METAR FLKK 181800Z 10004KT CAVOK 24/17 Q1015
Observed Flight Rules
Dec-18 @ 18:00 UTC (2 hours ago) Visual Flight Rules
Wind Visibility Clouds
100° at 4 knots 10,000+ meters
  • Clear skies
Temperatures Readings
Current 24°C / 75°F
Dewpoint 17°C / 63°F
Humidity 65%
Altimeter 29.97" Hg
Pressure 1015 hPa
Elevation 1154
METAR FLKK 181800Z 10004KT CAVOK 24/17 Q1015
Observed Flight Rules
Dec-18 @ 18:00 UTC
(2 hours ago)
VFR
Wind Visibility
100° at 4 knots 10,000+ meters
Clouds
  • Clear skies
Temperature Dewpoint
24°C / 75°F 17°C / 63°F
Humidity Altimeter Pressure
65% 29.97" Hg 1015 hPa